Share

Palisade, NE (69040)

5:14 AM CDT on April 23, 2014 (GMT -0500)
Palisade (KNEPALIS1) Elev 2768 ft | 40.35 °N, 101.11 °W | Change Station
Active Advisory: Blowing Dust Advisory

Current weather conditions updated 1 second ago

Clear
Clear
59.0 °F
Feels Like 59.0 °F
N
1.2
Wind Variable Wind from South
Gusts 1.2 mph
Sunrise 6:54 AM
Sunset 8:31 PM
Moon Last Quarter

Today is forecast to be Warmer than yesterday.

Pressure 29.57 in
Visibility 10.0 miles
Clouds Clear
Dew Point 48 °F
Humidity 66%
Rainfall 0.18 in
Snow Depth Not available.
UV 0 out of 16
Pollen 11.10 out of 12
Air Quality Not available.
Flu Activity Sporadic
METAR KMCK 230953Z AUTO 17024G32KT 10SM CLR 15/06 A2962 RMK AO2 PK WND 18034/0930 SLP011 T01500056

More Conditions Fewer Conditions

Pressure 29.57 in
Visibility 10.0 miles
Clouds Clear
Dew Point 48 °F
Humidity 66%
Rainfall 0.18 in
Snow Depth Not available.
UV 0 out of 16
Pollen 11.10 out of 12
Air Quality Not available.
Flu Activity Sporadic
METAR KMCK 230953Z AUTO 17024G32KT 10SM CLR 15/06 A2962 RMK AO2 PK WND 18034/0930 SLP011 T01500056

More Conditions Fewer Conditions

10-Day Weather Forecast

Almanac

Astronomy

Apr. 23, 2014 Rise Set
Actual Time 6:54 AM CDT 8:31 PM CDT
Civil Twilight 6:25 AM CDT 9:00 PM CDT
Nautical Twilight 5:50 AM CDT 9:35 PM CDT
Astronomical Twilight 5:13 AM CDT 10:12 PM CDT
Moon 3:28 AM CDT 2:41 PM CDT
Length of Visible Light 14h 34m
Length of Day
13h 37m
Tomorrow will be 2m 26s longer.
Last Quarter, 38% of the Moon is Illuminated
Today
Last Quarter
Apr 29
New
May 6
First Quarter
May 14
Full
May 21
Last Quarter

Today's Extremes

State Highs State Lows

Community

  • April Sunset
    April Sunset
  • Waiting..
    Waiting..
  • Sunset...
    Sunset...
  • Happy outdoor day
    Happy outdoor day
  • mystic afternoon....
    mystic afternoon....

WunderPhotos

Upload Photos

1,704,236 photos uploaded!

WunderBlogs® & News

By Dr. Jeff Masters
Director of Meteorology, Weather Underground
By Kari Strenfel
Meteorologist, Weather Underground
By Christopher C. Burt
Weather Historian, Weather Underground
April 23, 2014
April 22, 2014
April 22, 2014

Nearby

Snow Depth

Station Depth Elevation
No new snow has been reported.

Coastal Water Temperatures

Place Temperature
No Stations Reporting

Earthquake Activity

City Distance Mag. Time & Date
No recent earthquake activity has been reported nearby.
Minimum magnitude displayed is 2.5.

Nearby Weather Stations

Station Location Temp. Dew Point Humidity Wind Precip. Elev Updated Type
Palisade, Palisade, NE 59.0 °F 48 °F 66% South  at  1.2 mph 0.00 in / hr 2768 ft 5:14 AM CDT Rapid Fire
HAYES CENTER, HAYES CENTER, NE 53.0 °F 43 °F 70% ESE  at  9.0 mph 0.00 in / hr 3035 ft 5:09 AM CDT Normal

Show More Stations Show Fewer Stations

What do you think?

We're not finished. Please let us know what you like, what you don't like, and what you are still missing.